sensor_id;sensor_type;location;lat;lon;timestamp;temperature;humidity
25877;DHT22;13692;47.480;19.216;2023-02-28T00:01:24;1.30;99.90
25877;DHT22;13692;47.480;19.216;2023-02-28T00:03:51;1.30;99.90
25877;DHT22;13692;47.480;19.216;2023-02-28T00:06:19;1.30;99.90
25877;DHT22;13692;47.480;19.216;2023-02-28T00:08:46;1.40;99.90
25877;DHT22;13692;47.480;19.216;2023-02-28T00:11:15;1.40;99.90
25877;DHT22;13692;47.480;19.216;2023-02-28T00:13:44;1.50;99.90
25877;DHT22;13692;47.480;19.216;2023-02-28T00:16:20;1.60;99.90
25877;DHT22;13692;47.480;19.216;2023-02-28T00:18:47;1.60;99.90
25877;DHT22;13692;47.480;19.216;2023-02-28T00:21:16;1.60;99.90
25877;DHT22;13692;47.480;19.216;2023-02-28T00:23:43;1.70;99.90
25877;DHT22;13692;47.480;19.216;2023-02-28T00:26:11;1.80;99.90
25877;DHT22;13692;47.480;19.216;2023-02-28T00:28:37;1.80;99.90
25877;DHT22;13692;47.480;19.216;2023-02-28T00:31:04;1.80;99.90
25877;DHT22;13692;47.480;19.216;2023-02-28T00:33:32;1.90;99.90
25877;DHT22;13692;47.480;19.216;2023-02-28T00:36:10;1.80;99.90
25877;DHT22;13692;47.480;19.216;2023-02-28T00:38:38;1.70;99.90
25877;DHT22;13692;47.480;19.216;2023-02-28T00:41:06;1.70;99.90
25877;DHT22;13692;47.480;19.216;2023-02-28T00:43:35;1.60;99.90
25877;DHT22;13692;47.480;19.216;2023-02-28T00:46:03;1.60;99.90
25877;DHT22;13692;47.480;19.216;2023-02-28T00:48:31;1.60;99.90
25877;DHT22;13692;47.480;19.216;2023-02-28T00:50:58;1.70;99.90
25877;DHT22;13692;47.480;19.216;2023-02-28T00:53:25;1.80;99.90
25877;DHT22;13692;47.480;19.216;2023-02-28T00:55:52;1.90;99.90
25877;DHT22;13692;47.480;19.216;2023-02-28T00:58:19;1.80;99.90
25877;DHT22;13692;47.480;19.216;2023-02-28T01:00:46;1.70;99.90
25877;DHT22;13692;47.480;19.216;2023-02-28T01:03:17;1.80;99.90
25877;DHT22;13692;47.480;19.216;2023-02-28T01:05:45;1.90;99.90
25877;DHT22;13692;47.480;19.216;2023-02-28T01:08:13;1.90;99.90
25877;DHT22;13692;47.480;19.216;2023-02-28T01:10:40;2.00;99.90
25877;DHT22;13692;47.480;19.216;2023-02-28T01:13:07;2.00;99.90
25877;DHT22;13692;47.480;19.216;2023-02-28T01:15:34;2.00;99.90
25877;DHT22;13692;47.480;19.216;2023-02-28T01:18:02;2.00;99.90
25877;DHT22;13692;47.480;19.216;2023-02-28T01:20:29;2.00;99.90
25877;DHT22;13692;47.480;19.216;2023-02-28T01:22:55;2.00;99.90
25877;DHT22;13692;47.480;19.216;2023-02-28T01:25:22;2.00;99.90
25877;DHT22;13692;47.480;19.216;2023-02-28T01:27:49;2.00;99.90
25877;DHT22;13692;47.480;19.216;2023-02-28T01:30:16;1.90;99.90
25877;DHT22;13692;47.480;19.216;2023-02-28T01:32:43;1.90;99.90
25877;DHT22;13692;47.480;19.216;2023-02-28T01:35:10;1.90;99.90
25877;DHT22;13692;47.480;19.216;2023-02-28T01:37:37;1.90;99.90
25877;DHT22;13692;47.480;19.216;2023-02-28T01:40:05;2.00;99.90
25877;DHT22;13692;47.480;19.216;2023-02-28T01:42:32;2.10;99.90
25877;DHT22;13692;47.480;19.216;2023-02-28T01:47:50;2.10;99.90
25877;DHT22;13692;47.480;19.216;2023-02-28T01:50:25;2.00;99.90
25877;DHT22;13692;47.480;19.216;2023-02-28T01:52:56;2.10;99.90
25877;DHT22;13692;47.480;19.216;2023-02-28T01:55:24;2.00;99.90
25877;DHT22;13692;47.480;19.216;2023-02-28T01:57:58;2.00;99.90
25877;DHT22;13692;47.480;19.216;2023-02-28T02:00:26;2.00;99.90
25877;DHT22;13692;47.480;19.216;2023-02-28T02:02:57;2.00;99.90
25877;DHT22;13692;47.480;19.216;2023-02-28T02:05:28;2.00;99.90
25877;DHT22;13692;47.480;19.216;2023-02-28T02:08:02;2.00;99.90
25877;DHT22;13692;47.480;19.216;2023-02-28T02:40:32;2.10;99.90
25877;DHT22;13692;47.480;19.216;2023-02-28T02:43:41;2.10;99.90
25877;DHT22;13692;47.480;19.216;2023-02-28T02:46:21;2.10;99.90
25877;DHT22;13692;47.480;19.216;2023-02-28T02:48:52;2.10;99.90
25877;DHT22;13692;47.480;19.216;2023-02-28T02:51:22;2.10;99.90
25877;DHT22;13692;47.480;19.216;2023-02-28T02:53:54;2.00;99.90
25877;DHT22;13692;47.480;19.216;2023-02-28T02:56:27;2.00;99.90
25877;DHT22;13692;47.480;19.216;2023-02-28T02:59:01;2.10;99.90
25877;DHT22;13692;47.480;19.216;2023-02-28T03:01:31;2.10;99.90
25877;DHT22;13692;47.480;19.216;2023-02-28T03:04:06;2.10;99.90
25877;DHT22;13692;47.480;19.216;2023-02-28T03:06:34;2.00;99.90
25877;DHT22;13692;47.480;19.216;2023-02-28T03:09:02;1.90;99.90
25877;DHT22;13692;47.480;19.216;2023-02-28T03:11:31;2.00;99.90
25877;DHT22;13692;47.480;19.216;2023-02-28T03:16:53;2.10;99.90
25877;DHT22;13692;47.480;19.216;2023-02-28T03:35:52;2.10;99.90
25877;DHT22;13692;47.480;19.216;2023-02-28T03:38:40;2.10;99.90
25877;DHT22;13692;47.480;19.216;2023-02-28T03:41:25;2.20;99.90
25877;DHT22;13692;47.480;19.216;2023-02-28T03:43:58;2.20;99.90
25877;DHT22;13692;47.480;19.216;2023-02-28T03:46:32;2.30;99.90
25877;DHT22;13692;47.480;19.216;2023-02-28T03:49:07;2.30;99.90
25877;DHT22;13692;47.480;19.216;2023-02-28T03:51:35;2.30;99.90
25877;DHT22;13692;47.480;19.216;2023-02-28T03:54:08;2.30;99.90
25877;DHT22;13692;47.480;19.216;2023-02-28T03:56:53;2.30;99.90
25877;DHT22;13692;47.480;19.216;2023-02-28T03:59:35;2.30;99.90
25877;DHT22;13692;47.480;19.216;2023-02-28T04:02:04;2.20;99.90
25877;DHT22;13692;47.480;19.216;2023-02-28T04:04:31;2.30;99.90
25877;DHT22;13692;47.480;19.216;2023-02-28T04:07:07;2.30;99.90
25877;DHT22;13692;47.480;19.216;2023-02-28T04:09:34;2.30;99.90
25877;DHT22;13692;47.480;19.216;2023-02-28T04:12:01;2.30;99.90
25877;DHT22;13692;47.480;19.216;2023-02-28T04:14:28;2.40;99.90
25877;DHT22;13692;47.480;19.216;2023-02-28T04:16:56;2.30;99.90
25877;DHT22;13692;47.480;19.216;2023-02-28T04:19:22;2.40;99.90
25877;DHT22;13692;47.480;19.216;2023-02-28T04:21:51;2.30;99.90
25877;DHT22;13692;47.480;19.216;2023-02-28T04:24:25;2.30;99.90
25877;DHT22;13692;47.480;19.216;2023-02-28T04:26:54;2.30;99.90
25877;DHT22;13692;47.480;19.216;2023-02-28T04:29:24;2.30;99.90
25877;DHT22;13692;47.480;19.216;2023-02-28T04:31:52;2.30;99.90
25877;DHT22;13692;47.480;19.216;2023-02-28T04:34:29;2.30;99.90
25877;DHT22;13692;47.480;19.216;2023-02-28T04:36:57;2.30;99.90
25877;DHT22;13692;47.480;19.216;2023-02-28T04:39:40;2.30;99.90
25877;DHT22;13692;47.480;19.216;2023-02-28T04:42:09;2.30;99.90
25877;DHT22;13692;47.480;19.216;2023-02-28T04:44:36;2.20;99.90
25877;DHT22;13692;47.480;19.216;2023-02-28T04:47:03;2.30;99.90
25877;DHT22;13692;47.480;19.216;2023-02-28T04:49:31;2.30;99.90
25877;DHT22;13692;47.480;19.216;2023-02-28T04:51:58;2.30;99.90
25877;DHT22;13692;47.480;19.216;2023-02-28T04:54:24;2.40;99.90
25877;DHT22;13692;47.480;19.216;2023-02-28T04:56:51;2.40;99.90
25877;DHT22;13692;47.480;19.216;2023-02-28T04:59:18;2.40;99.90
25877;DHT22;13692;47.480;19.216;2023-02-28T05:01:48;2.40;99.90
25877;DHT22;13692;47.480;19.216;2023-02-28T05:04:17;2.40;99.90
25877;DHT22;13692;47.480;19.216;2023-02-28T05:06:44;2.40;99.90
25877;DHT22;13692;47.480;19.216;2023-02-28T05:09:11;2.40;99.90
25877;DHT22;13692;47.480;19.216;2023-02-28T05:11:39;2.40;99.90
25877;DHT22;13692;47.480;19.216;2023-02-28T05:14:10;2.40;99.90
25877;DHT22;13692;47.480;19.216;2023-02-28T05:16:38;2.40;99.90
25877;DHT22;13692;47.480;19.216;2023-02-28T05:19:05;2.40;99.90
25877;DHT22;13692;47.480;19.216;2023-02-28T05:21:36;2.40;99.90
25877;DHT22;13692;47.480;19.216;2023-02-28T05:24:09;2.40;99.90
25877;DHT22;13692;47.480;19.216;2023-02-28T05:26:39;2.30;99.90
25877;DHT22;13692;47.480;19.216;2023-02-28T05:29:06;2.30;99.90
25877;DHT22;13692;47.480;19.216;2023-02-28T05:31:33;2.40;99.90
25877;DHT22;13692;47.480;19.216;2023-02-28T05:34:01;2.40;99.90
25877;DHT22;13692;47.480;19.216;2023-02-28T05:36:30;2.50;99.90
25877;DHT22;13692;47.480;19.216;2023-02-28T05:38:57;2.50;99.90
25877;DHT22;13692;47.480;19.216;2023-02-28T05:41:24;2.50;99.90
25877;DHT22;13692;47.480;19.216;2023-02-28T05:43:53;2.50;99.90
25877;DHT22;13692;47.480;19.216;2023-02-28T05:46:20;2.50;99.90
25877;DHT22;13692;47.480;19.216;2023-02-28T05:48:47;2.50;99.90
25877;DHT22;13692;47.480;19.216;2023-02-28T05:51:15;2.50;99.90
25877;DHT22;13692;47.480;19.216;2023-02-28T05:53:42;2.50;99.90
25877;DHT22;13692;47.480;19.216;2023-02-28T05:56:09;2.60;99.90
25877;DHT22;13692;47.480;19.216;2023-02-28T05:58:36;2.50;99.90
25877;DHT22;13692;47.480;19.216;2023-02-28T06:01:30;2.60;99.90
25877;DHT22;13692;47.480;19.216;2023-02-28T06:03:59;2.60;99.90
25877;DHT22;13692;47.480;19.216;2023-02-28T06:06:27;2.60;99.90
25877;DHT22;13692;47.480;19.216;2023-02-28T06:08:53;2.60;99.90
25877;DHT22;13692;47.480;19.216;2023-02-28T06:11:20;2.60;99.90
25877;DHT22;13692;47.480;19.216;2023-02-28T06:13:48;2.70;99.90
25877;DHT22;13692;47.480;19.216;2023-02-28T06:16:15;2.70;99.90
25877;DHT22;13692;47.480;19.216;2023-02-28T06:18:42;2.70;99.90
25877;DHT22;13692;47.480;19.216;2023-02-28T06:21:09;2.70;99.90
25877;DHT22;13692;47.480;19.216;2023-02-28T06:23:36;2.70;99.90
25877;DHT22;13692;47.480;19.216;2023-02-28T06:26:03;2.80;99.90
25877;DHT22;13692;47.480;19.216;2023-02-28T06:28:30;2.80;99.90
25877;DHT22;13692;47.480;19.216;2023-02-28T06:30:56;2.80;99.90
25877;DHT22;13692;47.480;19.216;2023-02-28T06:33:23;2.90;99.90
25877;DHT22;13692;47.480;19.216;2023-02-28T06:35:52;2.90;99.90
25877;DHT22;13692;47.480;19.216;2023-02-28T06:38:19;2.90;99.90
25877;DHT22;13692;47.480;19.216;2023-02-28T06:40:53;3.00;99.90
25877;DHT22;13692;47.480;19.216;2023-02-28T06:43:21;3.00;99.90
25877;DHT22;13692;47.480;19.216;2023-02-28T06:45:49;3.00;99.90
25877;DHT22;13692;47.480;19.216;2023-02-28T06:48:16;3.10;99.90
25877;DHT22;13692;47.480;19.216;2023-02-28T06:50:43;3.10;99.90
25877;DHT22;13692;47.480;19.216;2023-02-28T06:53:10;3.20;99.90
25877;DHT22;13692;47.480;19.216;2023-02-28T06:55:38;3.30;99.90
25877;DHT22;13692;47.480;19.216;2023-02-28T06:58:05;3.50;99.90
25877;DHT22;13692;47.480;19.216;2023-02-28T07:00:42;3.60;99.90
25877;DHT22;13692;47.480;19.216;2023-02-28T07:03:11;3.60;99.90
25877;DHT22;13692;47.480;19.216;2023-02-28T07:05:39;3.70;99.90
25877;DHT22;13692;47.480;19.216;2023-02-28T07:08:06;3.70;99.90
25877;DHT22;13692;47.480;19.216;2023-02-28T07:10:33;3.80;99.90
25877;DHT22;13692;47.480;19.216;2023-02-28T07:13:00;3.90;99.90
25877;DHT22;13692;47.480;19.216;2023-02-28T07:15:27;4.00;99.90
25877;DHT22;13692;47.480;19.216;2023-02-28T07:17:54;4.10;99.90
25877;DHT22;13692;47.480;19.216;2023-02-28T07:20:24;4.10;99.90
25877;DHT22;13692;47.480;19.216;2023-02-28T07:22:51;4.10;99.90
25877;DHT22;13692;47.480;19.216;2023-02-28T07:25:28;4.20;99.90
25877;DHT22;13692;47.480;19.216;2023-02-28T07:27:56;4.30;99.90
25877;DHT22;13692;47.480;19.216;2023-02-28T07:30:23;4.20;99.90
25877;DHT22;13692;47.480;19.216;2023-02-28T07:32:50;4.20;99.90
25877;DHT22;13692;47.480;19.216;2023-02-28T07:35:17;4.30;99.90
25877;DHT22;13692;47.480;19.216;2023-02-28T07:37:44;4.20;99.90
25877;DHT22;13692;47.480;19.216;2023-02-28T07:40:11;4.20;99.90
25877;DHT22;13692;47.480;19.216;2023-02-28T07:42:42;4.40;99.90
25877;DHT22;13692;47.480;19.216;2023-02-28T07:45:10;4.50;99.90
25877;DHT22;13692;47.480;19.216;2023-02-28T07:47:39;4.60;99.90
25877;DHT22;13692;47.480;19.216;2023-02-28T07:50:07;4.60;99.90
25877;DHT22;13692;47.480;19.216;2023-02-28T07:52:35;4.60;99.90
25877;DHT22;13692;47.480;19.216;2023-02-28T07:55:03;4.80;99.90
25877;DHT22;13692;47.480;19.216;2023-02-28T07:57:31;5.00;99.90
25877;DHT22;13692;47.480;19.216;2023-02-28T07:59:59;5.20;99.90
25877;DHT22;13692;47.480;19.216;2023-02-28T08:02:26;5.50;99.90
25877;DHT22;13692;47.480;19.216;2023-02-28T08:04:53;5.60;99.20
25877;DHT22;13692;47.480;19.216;2023-02-28T08:07:20;5.60;98.00
25877;DHT22;13692;47.480;19.216;2023-02-28T08:09:47;5.50;98.50
25877;DHT22;13692;47.480;19.216;2023-02-28T08:12:14;5.70;98.20
25877;DHT22;13692;47.480;19.216;2023-02-28T08:14:41;6.00;98.50
25877;DHT22;13692;47.480;19.216;2023-02-28T08:17:10;6.20;97.30
25877;DHT22;13692;47.480;19.216;2023-02-28T08:19:37;6.30;97.30
25877;DHT22;13692;47.480;19.216;2023-02-28T08:22:04;6.30;96.10
25877;DHT22;13692;47.480;19.216;2023-02-28T08:24:31;6.10;95.50
25877;DHT22;13692;47.480;19.216;2023-02-28T08:26:58;6.00;95.50
25877;DHT22;13692;47.480;19.216;2023-02-28T08:29:25;5.70;95.70
25877;DHT22;13692;47.480;19.216;2023-02-28T08:31:52;5.90;96.30
25877;DHT22;13692;47.480;19.216;2023-02-28T08:34:19;6.00;95.40
25877;DHT22;13692;47.480;19.216;2023-02-28T08:36:46;5.90;95.40
25877;DHT22;13692;47.480;19.216;2023-02-28T08:39:13;5.80;95.50
25877;DHT22;13692;47.480;19.216;2023-02-28T08:41:42;5.80;95.40
25877;DHT22;13692;47.480;19.216;2023-02-28T08:44:09;5.90;95.60
25877;DHT22;13692;47.480;19.216;2023-02-28T08:46:36;6.30;96.10
25877;DHT22;13692;47.480;19.216;2023-02-28T08:49:03;6.70;94.50
25877;DHT22;13692;47.480;19.216;2023-02-28T08:51:30;7.00;94.30
25877;DHT22;13692;47.480;19.216;2023-02-28T08:53:59;7.20;94.00
25877;DHT22;13692;47.480;19.216;2023-02-28T08:56:27;7.50;93.50
25877;DHT22;13692;47.480;19.216;2023-02-28T08:58:56;7.50;92.60
25877;DHT22;13692;47.480;19.216;2023-02-28T09:01:28;7.40;93.00
25877;DHT22;13692;47.480;19.216;2023-02-28T09:03:56;7.50;92.70
25877;DHT22;13692;47.480;19.216;2023-02-28T09:06:25;7.30;92.50
25877;DHT22;13692;47.480;19.216;2023-02-28T09:08:56;7.20;93.40
25877;DHT22;13692;47.480;19.216;2023-02-28T09:11:25;7.20;93.00
25877;DHT22;13692;47.480;19.216;2023-02-28T09:13:52;6.90;92.60
25877;DHT22;13692;47.480;19.216;2023-02-28T09:16:19;6.80;93.80
25877;DHT22;13692;47.480;19.216;2023-02-28T09:18:46;6.80;93.40
25877;DHT22;13692;47.480;19.216;2023-02-28T09:21:18;6.60;93.00
25877;DHT22;13692;47.480;19.216;2023-02-28T09:23:47;6.20;93.80
25877;DHT22;13692;47.480;19.216;2023-02-28T09:26:18;6.00;94.60
25877;DHT22;13692;47.480;19.216;2023-02-28T09:28:46;5.90;94.60
25877;DHT22;13692;47.480;19.216;2023-02-28T09:31:18;5.90;94.90
25877;DHT22;13692;47.480;19.216;2023-02-28T09:33:51;5.90;95.50
25877;DHT22;13692;47.480;19.216;2023-02-28T09:36:19;6.00;95.00
25877;DHT22;13692;47.480;19.216;2023-02-28T09:38:47;6.00;95.00
25877;DHT22;13692;47.480;19.216;2023-02-28T09:41:21;6.20;95.50
25877;DHT22;13692;47.480;19.216;2023-02-28T09:43:55;6.50;94.90
25877;DHT22;13692;47.480;19.216;2023-02-28T09:46:33;6.50;94.40
25877;DHT22;13692;47.480;19.216;2023-02-28T09:49:05;6.30;94.50
25877;DHT22;13692;47.480;19.216;2023-02-28T09:51:49;6.50;95.30
25877;DHT22;13692;47.480;19.216;2023-02-28T09:54:22;6.60;94.70
25877;DHT22;13692;47.480;19.216;2023-02-28T10:05:35;6.80;94.60
25877;DHT22;13692;47.480;19.216;2023-02-28T10:08:17;6.80;94.50
25877;DHT22;13692;47.480;19.216;2023-02-28T10:10:57;6.60;94.40
25877;DHT22;13692;47.480;19.216;2023-02-28T10:13:35;6.80;95.10
25877;DHT22;13692;47.480;19.216;2023-02-28T10:21:36;7.20;94.40
25877;DHT22;13692;47.480;19.216;2023-02-28T10:26:45;7.10;94.60
25877;DHT22;13692;47.480;19.216;2023-02-28T10:29:14;7.10;94.60
25877;DHT22;13692;47.480;19.216;2023-02-28T10:31:41;7.40;95.50
25877;DHT22;13692;47.480;19.216;2023-02-28T10:34:12;7.80;95.40
25877;DHT22;13692;47.480;19.216;2023-02-28T10:36:39;8.00;94.70
25877;DHT22;13692;47.480;19.216;2023-02-28T10:42:01;7.50;94.40
25877;DHT22;13692;47.480;19.216;2023-02-28T10:44:28;7.60;94.60
25877;DHT22;13692;47.480;19.216;2023-02-28T10:46:56;7.90;94.20
25877;DHT22;13692;47.480;19.216;2023-02-28T10:49:26;7.80;94.10
25877;DHT22;13692;47.480;19.216;2023-02-28T10:51:59;7.60;94.30
25877;DHT22;13692;47.480;19.216;2023-02-28T10:54:34;7.80;94.90
25877;DHT22;13692;47.480;19.216;2023-02-28T10:57:20;7.90;94.50
25877;DHT22;13692;47.480;19.216;2023-02-28T10:59:52;7.90;94.50
25877;DHT22;13692;47.480;19.216;2023-02-28T11:02:35;7.60;94.90
25877;DHT22;13692;47.480;19.216;2023-02-28T11:05:29;7.70;94.60
25877;DHT22;13692;47.480;19.216;2023-02-28T11:08:10;7.50;95.10
25877;DHT22;13692;47.480;19.216;2023-02-28T11:10:39;7.40;95.40
25877;DHT22;13692;47.480;19.216;2023-02-28T11:13:06;7.50;95.70
25877;DHT22;13692;47.480;19.216;2023-02-28T11:15:34;7.30;95.30
25877;DHT22;13692;47.480;19.216;2023-02-28T11:20:34;7.00;96.20
25877;DHT22;13692;47.480;19.216;2023-02-28T11:23:03;7.00;96.50
25877;DHT22;13692;47.480;19.216;2023-02-28T11:25:36;7.10;96.40
25877;DHT22;13692;47.480;19.216;2023-02-28T11:28:23;7.20;96.20
25877;DHT22;13692;47.480;19.216;2023-02-28T11:33:50;7.10;96.90
25877;DHT22;13692;47.480;19.216;2023-02-28T11:36:29;7.10;97.20
25877;DHT22;13692;47.480;19.216;2023-02-28T11:38:59;6.90;97.10
25877;DHT22;13692;47.480;19.216;2023-02-28T11:41:45;6.70;97.80
25877;DHT22;13692;47.480;19.216;2023-02-28T11:47:14;7.00;98.50
25877;DHT22;13692;47.480;19.216;2023-02-28T11:54:55;7.00;97.60
25877;DHT22;13692;47.480;19.216;2023-02-28T12:03:47;7.60;96.40
25877;DHT22;13692;47.480;19.216;2023-02-28T12:28:57;7.90;95.10
25877;DHT22;13692;47.480;19.216;2023-02-28T12:31:30;7.80;95.60
25877;DHT22;13692;47.480;19.216;2023-02-28T12:34:49;7.80;95.50
25877;DHT22;13692;47.480;19.216;2023-02-28T12:36:56;7.60;95.70
25877;DHT22;13692;47.480;19.216;2023-02-28T12:39:46;7.90;96.20
25877;DHT22;13692;47.480;19.216;2023-02-28T12:44:59;8.00;95.70
25877;DHT22;13692;47.480;19.216;2023-02-28T12:47:27;8.10;95.60
25877;DHT22;13692;47.480;19.216;2023-02-28T12:49:59;8.20;95.90
25877;DHT22;13692;47.480;19.216;2023-02-28T12:52:57;8.20;95.50
25877;DHT22;13692;47.480;19.216;2023-02-28T12:59:07;8.40;94.70
25877;DHT22;13692;47.480;19.216;2023-02-28T13:04:21;7.90;96.40
25877;DHT22;13692;47.480;19.216;2023-02-28T13:09:14;7.70;96.20
25877;DHT22;13692;47.480;19.216;2023-02-28T13:11:53;7.70;96.30
25877;DHT22;13692;47.480;19.216;2023-02-28T13:22:05;7.50;96.80
25877;DHT22;13692;47.480;19.216;2023-02-28T13:24:50;7.70;96.80
25877;DHT22;13692;47.480;19.216;2023-02-28T13:29:53;7.90;96.40
25877;DHT22;13692;47.480;19.216;2023-02-28T13:32:31;7.80;96.30
25877;DHT22;13692;47.480;19.216;2023-02-28T13:42:53;7.30;97.20
25877;DHT22;13692;47.480;19.216;2023-02-28T13:45:28;7.30;97.10
25877;DHT22;13692;47.480;19.216;2023-02-28T13:48:17;7.20;97.70
25877;DHT22;13692;47.480;19.216;2023-02-28T13:50:45;7.20;97.90
25877;DHT22;13692;47.480;19.216;2023-02-28T14:01:21;7.50;98.30
25877;DHT22;13692;47.480;19.216;2023-02-28T14:06:36;7.40;97.30
25877;DHT22;13692;47.480;19.216;2023-02-28T14:11:57;7.30;98.00
25877;DHT22;13692;47.480;19.216;2023-02-28T14:17:07;7.10;98.10
25877;DHT22;13692;47.480;19.216;2023-02-28T14:19:37;7.00;98.20
25877;DHT22;13692;47.480;19.216;2023-02-28T14:25:08;7.00;98.80
25877;DHT22;13692;47.480;19.216;2023-02-28T14:38:31;6.80;99.40
25877;DHT22;13692;47.480;19.216;2023-02-28T14:41:04;6.80;99.50
25877;DHT22;13692;47.480;19.216;2023-02-28T14:43:33;6.70;99.90
25877;DHT22;13692;47.480;19.216;2023-02-28T14:46:02;6.70;99.90
25877;DHT22;13692;47.480;19.216;2023-02-28T14:48:31;6.80;99.90
25877;DHT22;13692;47.480;19.216;2023-02-28T14:51:00;6.70;99.90
25877;DHT22;13692;47.480;19.216;2023-02-28T14:53:30;6.70;99.90
25877;DHT22;13692;47.480;19.216;2023-02-28T14:55:57;6.60;99.90
25877;DHT22;13692;47.480;19.216;2023-02-28T14:58:30;6.50;99.90
25877;DHT22;13692;47.480;19.216;2023-02-28T15:01:03;6.50;99.90
25877;DHT22;13692;47.480;19.216;2023-02-28T15:03:36;6.40;99.90
25877;DHT22;13692;47.480;19.216;2023-02-28T15:06:06;6.40;99.90
25877;DHT22;13692;47.480;19.216;2023-02-28T15:08:38;6.30;99.90
25877;DHT22;13692;47.480;19.216;2023-02-28T15:11:11;6.30;99.90
25877;DHT22;13692;47.480;19.216;2023-02-28T15:13:42;6.20;99.90
25877;DHT22;13692;47.480;19.216;2023-02-28T15:16:17;6.30;99.90
25877;DHT22;13692;47.480;19.216;2023-02-28T15:19:13;6.20;99.90
25877;DHT22;13692;47.480;19.216;2023-02-28T15:21:45;6.10;99.90
25877;DHT22;13692;47.480;19.216;2023-02-28T15:24:40;6.20;99.90
25877;DHT22;13692;47.480;19.216;2023-02-28T15:27:20;6.20;99.90
25877;DHT22;13692;47.480;19.216;2023-02-28T15:29:50;6.30;99.90
25877;DHT22;13692;47.480;19.216;2023-02-28T15:32:28;6.30;99.90
25877;DHT22;13692;47.480;19.216;2023-02-28T15:34:58;6.20;99.90
25877;DHT22;13692;47.480;19.216;2023-02-28T15:37:38;6.30;99.90
25877;DHT22;13692;47.480;19.216;2023-02-28T15:40:29;6.30;99.90
25877;DHT22;13692;47.480;19.216;2023-02-28T15:43:16;6.20;99.90
25877;DHT22;13692;47.480;19.216;2023-02-28T15:46:30;6.20;99.90
25877;DHT22;13692;47.480;19.216;2023-02-28T15:48:44;6.10;99.90
25877;DHT22;13692;47.480;19.216;2023-02-28T15:53:51;6.10;99.90
25877;DHT22;13692;47.480;19.216;2023-02-28T15:56:31;6.10;99.90
25877;DHT22;13692;47.480;19.216;2023-02-28T15:59:03;6.00;99.90
25877;DHT22;13692;47.480;19.216;2023-02-28T16:01:37;6.00;99.90
25877;DHT22;13692;47.480;19.216;2023-02-28T16:04:11;5.90;99.90
25877;DHT22;13692;47.480;19.216;2023-02-28T16:06:45;6.00;99.90
25877;DHT22;13692;47.480;19.216;2023-02-28T16:09:14;6.00;99.90
25877;DHT22;13692;47.480;19.216;2023-02-28T16:11:48;6.00;99.90
25877;DHT22;13692;47.480;19.216;2023-02-28T16:14:22;6.00;99.90
25877;DHT22;13692;47.480;19.216;2023-02-28T16:16:56;5.90;99.90
25877;DHT22;13692;47.480;19.216;2023-02-28T16:19:23;5.90;99.90
25877;DHT22;13692;47.480;19.216;2023-02-28T16:21:50;5.90;99.90
25877;DHT22;13692;47.480;19.216;2023-02-28T16:24:17;5.90;99.90
25877;DHT22;13692;47.480;19.216;2023-02-28T16:26:48;5.80;99.90
25877;DHT22;13692;47.480;19.216;2023-02-28T16:29:28;5.80;99.90
25877;DHT22;13692;47.480;19.216;2023-02-28T16:31:56;5.80;99.90
25877;DHT22;13692;47.480;19.216;2023-02-28T16:34:24;5.80;99.90
25877;DHT22;13692;47.480;19.216;2023-02-28T16:36:52;5.90;99.90
25877;DHT22;13692;47.480;19.216;2023-02-28T16:39:19;5.80;99.90
25877;DHT22;13692;47.480;19.216;2023-02-28T16:41:50;5.80;99.90
25877;DHT22;13692;47.480;19.216;2023-02-28T16:44:33;5.80;99.90
25877;DHT22;13692;47.480;19.216;2023-02-28T16:47:03;5.80;99.90
25877;DHT22;13692;47.480;19.216;2023-02-28T16:49:31;5.80;99.90
25877;DHT22;13692;47.480;19.216;2023-02-28T16:52:00;5.80;99.90
25877;DHT22;13692;47.480;19.216;2023-02-28T16:54:27;5.70;99.90
25877;DHT22;13692;47.480;19.216;2023-02-28T16:56:54;5.70;99.90
25877;DHT22;13692;47.480;19.216;2023-02-28T16:59:23;5.70;99.90
25877;DHT22;13692;47.480;19.216;2023-02-28T17:01:51;5.70;99.90
25877;DHT22;13692;47.480;19.216;2023-02-28T17:04:19;5.70;99.90
25877;DHT22;13692;47.480;19.216;2023-02-28T17:06:46;5.70;99.90
25877;DHT22;13692;47.480;19.216;2023-02-28T17:09:18;5.70;99.90
25877;DHT22;13692;47.480;19.216;2023-02-28T17:11:48;5.80;99.90
25877;DHT22;13692;47.480;19.216;2023-02-28T17:14:15;5.90;99.90
25877;DHT22;13692;47.480;19.216;2023-02-28T17:16:43;5.90;99.90
25877;DHT22;13692;47.480;19.216;2023-02-28T17:19:15;5.90;99.90
25877;DHT22;13692;47.480;19.216;2023-02-28T17:21:43;6.00;99.90
25877;DHT22;13692;47.480;19.216;2023-02-28T17:24:11;5.90;99.90
25877;DHT22;13692;47.480;19.216;2023-02-28T17:26:45;5.90;99.90
25877;DHT22;13692;47.480;19.216;2023-02-28T17:29:18;5.90;99.90
25877;DHT22;13692;47.480;19.216;2023-02-28T17:31:47;5.90;99.90
25877;DHT22;13692;47.480;19.216;2023-02-28T17:34:15;5.80;99.90
25877;DHT22;13692;47.480;19.216;2023-02-28T17:36:50;5.80;99.90
25877;DHT22;13692;47.480;19.216;2023-02-28T17:39:20;5.80;99.90
25877;DHT22;13692;47.480;19.216;2023-02-28T17:41:52;5.80;99.90
25877;DHT22;13692;47.480;19.216;2023-02-28T17:44:21;5.80;99.90
25877;DHT22;13692;47.480;19.216;2023-02-28T17:46:49;5.70;99.90
25877;DHT22;13692;47.480;19.216;2023-02-28T17:49:17;5.80;99.90
25877;DHT22;13692;47.480;19.216;2023-02-28T17:51:46;5.80;99.90
25877;DHT22;13692;47.480;19.216;2023-02-28T17:54:14;5.80;99.90
25877;DHT22;13692;47.480;19.216;2023-02-28T17:56:44;5.80;99.90
25877;DHT22;13692;47.480;19.216;2023-02-28T17:59:13;5.80;99.90
25877;DHT22;13692;47.480;19.216;2023-02-28T18:01:41;5.80;99.90
25877;DHT22;13692;47.480;19.216;2023-02-28T18:04:09;5.80;99.90
25877;DHT22;13692;47.480;19.216;2023-02-28T18:06:41;5.80;99.90
25877;DHT22;13692;47.480;19.216;2023-02-28T18:09:19;5.80;99.90
25877;DHT22;13692;47.480;19.216;2023-02-28T18:11:50;5.90;99.90
25877;DHT22;13692;47.480;19.216;2023-02-28T18:14:19;5.90;99.90
25877;DHT22;13692;47.480;19.216;2023-02-28T18:16:47;5.90;99.90
25877;DHT22;13692;47.480;19.216;2023-02-28T18:19:15;5.90;99.90
25877;DHT22;13692;47.480;19.216;2023-02-28T18:21:44;5.90;99.90
25877;DHT22;13692;47.480;19.216;2023-02-28T18:24:13;5.90;99.90
25877;DHT22;13692;47.480;19.216;2023-02-28T18:26:42;5.90;99.90
25877;DHT22;13692;47.480;19.216;2023-02-28T18:29:22;5.90;99.90
25877;DHT22;13692;47.480;19.216;2023-02-28T18:31:51;5.90;99.90
25877;DHT22;13692;47.480;19.216;2023-02-28T18:34:20;5.90;99.90
25877;DHT22;13692;47.480;19.216;2023-02-28T18:36:48;5.80;99.90
25877;DHT22;13692;47.480;19.216;2023-02-28T18:39:18;5.80;99.90
25877;DHT22;13692;47.480;19.216;2023-02-28T18:41:45;5.80;99.90
25877;DHT22;13692;47.480;19.216;2023-02-28T18:44:14;5.80;99.90
25877;DHT22;13692;47.480;19.216;2023-02-28T18:46:50;5.80;99.90
25877;DHT22;13692;47.480;19.216;2023-02-28T18:49:18;5.90;99.90